sensor_id;sensor_type;location;lat;lon;timestamp;P1;durP1;ratioP1;P2;durP2;ratioP2
43700;SDS011;58809;47.984;7.964;2022-10-15T00:01:19;0.85;;;0.85;;
43700;SDS011;58809;47.984;7.964;2022-10-15T00:04:20;2.17;;;0.75;;
43700;SDS011;58809;47.984;7.964;2022-10-15T00:07:24;0.95;;;0.70;;
43700;SDS011;58809;47.984;7.964;2022-10-15T00:10:25;0.63;;;0.50;;
43700;SDS011;58809;47.984;7.964;2022-10-15T00:13:27;0.40;;;0.40;;
43700;SDS011;58809;47.984;7.964;2022-10-15T00:16:28;0.60;;;0.60;;
43700;SDS011;58809;47.984;7.964;2022-10-15T00:19:30;1.98;;;0.90;;
43700;SDS011;58809;47.984;7.964;2022-10-15T00:22:32;0.70;;;0.70;;
43700;SDS011;58809;47.984;7.964;2022-10-15T00:25:33;2.60;;;0.80;;
43700;SDS011;58809;47.984;7.964;2022-10-15T00:28:35;1.27;;;0.88;;
43700;SDS011;58809;47.984;7.964;2022-10-15T00:31:37;1.27;;;1.15;;
43700;SDS011;58809;47.984;7.964;2022-10-15T00:34:39;1.45;;;1.13;;
43700;SDS011;58809;47.984;7.964;2022-10-15T00:37:41;1.45;;;1.20;;
43700;SDS011;58809;47.984;7.964;2022-10-15T00:40:44;1.50;;;1.30;;
43700;SDS011;58809;47.984;7.964;2022-10-15T00:43:55;1.80;;;0.90;;
43700;SDS011;58809;47.984;7.964;2022-10-15T00:50:37;0.63;;;0.63;;
43700;SDS011;58809;47.984;7.964;2022-10-15T00:53:39;0.73;;;0.70;;
43700;SDS011;58809;47.984;7.964;2022-10-15T00:56:41;1.13;;;1.00;;
43700;SDS011;58809;47.984;7.964;2022-10-15T00:59:50;1.20;;;1.02;;
43700;SDS011;58809;47.984;7.964;2022-10-15T01:02:54;1.10;;;1.00;;
43700;SDS011;58809;47.984;7.964;2022-10-15T01:05:55;1.15;;;1.02;;
43700;SDS011;58809;47.984;7.964;2022-10-15T01:08:57;1.30;;;1.20;;
43700;SDS011;58809;47.984;7.964;2022-10-15T01:12:00;1.48;;;1.10;;
43700;SDS011;58809;47.984;7.964;2022-10-15T01:15:18;1.88;;;1.15;;
43700;SDS011;58809;47.984;7.964;2022-10-15T01:18:31;2.50;;;1.40;;
43700;SDS011;58809;47.984;7.964;2022-10-15T01:21:46;2.40;;;1.30;;
43700;SDS011;58809;47.984;7.964;2022-10-15T01:25:02;1.85;;;1.52;;
43700;SDS011;58809;47.984;7.964;2022-10-15T01:41:45;1.83;;;1.43;;
43700;SDS011;58809;47.984;7.964;2022-10-15T01:44:56;1.70;;;1.45;;
43700;SDS011;58809;47.984;7.964;2022-10-15T01:48:04;1.08;;;1.08;;
43700;SDS011;58809;47.984;7.964;2022-10-15T01:51:10;1.55;;;1.38;;
43700;SDS011;58809;47.984;7.964;2022-10-15T01:54:14;2.08;;;1.15;;
43700;SDS011;58809;47.984;7.964;2022-10-15T02:00:21;1.33;;;0.73;;
43700;SDS011;58809;47.984;7.964;2022-10-15T02:03:23;0.70;;;0.70;;
43700;SDS011;58809;47.984;7.964;2022-10-15T02:06:36;0.75;;;0.60;;
43700;SDS011;58809;47.984;7.964;2022-10-15T02:09:57;0.82;;;0.73;;
43700;SDS011;58809;47.984;7.964;2022-10-15T02:16:20;0.93;;;0.88;;
43700;SDS011;58809;47.984;7.964;2022-10-15T02:19:37;1.45;;;1.08;;
43700;SDS011;58809;47.984;7.964;2022-10-15T02:22:52;2.47;;;1.00;;
43700;SDS011;58809;47.984;7.964;2022-10-15T02:25:58;0.82;;;0.82;;
43700;SDS011;58809;47.984;7.964;2022-10-15T02:29:00;0.88;;;0.77;;
43700;SDS011;58809;47.984;7.964;2022-10-15T02:32:06;1.00;;;0.90;;
43700;SDS011;58809;47.984;7.964;2022-10-15T02:35:09;0.82;;;0.82;;
43700;SDS011;58809;47.984;7.964;2022-10-15T02:38:16;1.23;;;1.17;;
43700;SDS011;58809;47.984;7.964;2022-10-15T02:41:20;1.00;;;0.80;;
43700;SDS011;58809;47.984;7.964;2022-10-15T02:44:23;0.90;;;0.90;;
43700;SDS011;58809;47.984;7.964;2022-10-15T02:47:24;1.10;;;0.95;;
43700;SDS011;58809;47.984;7.964;2022-10-15T02:50:26;1.15;;;1.02;;
43700;SDS011;58809;47.984;7.964;2022-10-15T02:53:28;1.35;;;1.23;;
43700;SDS011;58809;47.984;7.964;2022-10-15T02:56:30;1.05;;;0.98;;
43700;SDS011;58809;47.984;7.964;2022-10-15T02:59:32;1.95;;;1.23;;
43700;SDS011;58809;47.984;7.964;2022-10-15T03:02:34;1.80;;;0.95;;
43700;SDS011;58809;47.984;7.964;2022-10-15T03:05:37;2.17;;;1.17;;
43700;SDS011;58809;47.984;7.964;2022-10-15T03:08:39;1.13;;;1.10;;
43700;SDS011;58809;47.984;7.964;2022-10-15T03:11:43;1.77;;;0.90;;
43700;SDS011;58809;47.984;7.964;2022-10-15T03:14:44;3.53;;;1.45;;
43700;SDS011;58809;47.984;7.964;2022-10-15T03:17:47;1.85;;;1.13;;
43700;SDS011;58809;47.984;7.964;2022-10-15T03:20:52;2.60;;;1.23;;
43700;SDS011;58809;47.984;7.964;2022-10-15T03:23:58;0.98;;;0.80;;
43700;SDS011;58809;47.984;7.964;2022-10-15T03:27:00;1.52;;;1.10;;
43700;SDS011;58809;47.984;7.964;2022-10-15T03:30:03;1.23;;;1.00;;
43700;SDS011;58809;47.984;7.964;2022-10-15T03:33:06;1.73;;;1.05;;
43700;SDS011;58809;47.984;7.964;2022-10-15T03:36:09;1.63;;;0.90;;
43700;SDS011;58809;47.984;7.964;2022-10-15T03:39:11;1.70;;;1.00;;
43700;SDS011;58809;47.984;7.964;2022-10-15T03:42:14;1.97;;;1.03;;
43700;SDS011;58809;47.984;7.964;2022-10-15T03:45:18;1.40;;;0.95;;
43700;SDS011;58809;47.984;7.964;2022-10-15T03:48:26;2.17;;;1.33;;
43700;SDS011;58809;47.984;7.964;2022-10-15T03:51:28;2.60;;;1.70;;
43700;SDS011;58809;47.984;7.964;2022-10-15T03:54:38;6.72;;;2.15;;
43700;SDS011;58809;47.984;7.964;2022-10-15T03:57:40;2.75;;;2.53;;
43700;SDS011;58809;47.984;7.964;2022-10-15T04:00:43;5.35;;;2.65;;
43700;SDS011;58809;47.984;7.964;2022-10-15T04:03:45;2.40;;;1.33;;
43700;SDS011;58809;47.984;7.964;2022-10-15T04:06:49;2.05;;;1.85;;
43700;SDS011;58809;47.984;7.964;2022-10-15T04:09:52;2.55;;;2.30;;
43700;SDS011;58809;47.984;7.964;2022-10-15T04:12:58;2.70;;;1.88;;
43700;SDS011;58809;47.984;7.964;2022-10-15T04:16:03;1.73;;;1.63;;
43700;SDS011;58809;47.984;7.964;2022-10-15T04:19:05;3.30;;;3.00;;
43700;SDS011;58809;47.984;7.964;2022-10-15T04:22:11;2.45;;;2.10;;
43700;SDS011;58809;47.984;7.964;2022-10-15T04:25:19;1.67;;;1.38;;
43700;SDS011;58809;47.984;7.964;2022-10-15T04:28:20;2.67;;;2.38;;
43700;SDS011;58809;47.984;7.964;2022-10-15T04:31:23;2.38;;;1.20;;
43700;SDS011;58809;47.984;7.964;2022-10-15T04:34:25;1.42;;;1.10;;
43700;SDS011;58809;47.984;7.964;2022-10-15T04:37:27;0.73;;;0.73;;
43700;SDS011;58809;47.984;7.964;2022-10-15T04:40:29;1.35;;;1.10;;
43700;SDS011;58809;47.984;7.964;2022-10-15T04:43:30;1.45;;;1.02;;
43700;SDS011;58809;47.984;7.964;2022-10-15T04:46:36;1.70;;;1.35;;
43700;SDS011;58809;47.984;7.964;2022-10-15T04:50:04;2.13;;;1.30;;
43700;SDS011;58809;47.984;7.964;2022-10-15T04:53:24;2.22;;;1.20;;
43700;SDS011;58809;47.984;7.964;2022-10-15T04:56:26;0.98;;;0.88;;
43700;SDS011;58809;47.984;7.964;2022-10-15T04:59:29;1.10;;;1.00;;
43700;SDS011;58809;47.984;7.964;2022-10-15T05:02:50;1.98;;;1.33;;
43700;SDS011;58809;47.984;7.964;2022-10-15T05:06:13;1.45;;;0.98;;
43700;SDS011;58809;47.984;7.964;2022-10-15T05:09:19;1.85;;;1.02;;
43700;SDS011;58809;47.984;7.964;2022-10-15T05:12:23;1.65;;;1.35;;
43700;SDS011;58809;47.984;7.964;2022-10-15T05:15:26;1.92;;;1.23;;
43700;SDS011;58809;47.984;7.964;2022-10-15T05:18:28;2.42;;;1.17;;
43700;SDS011;58809;47.984;7.964;2022-10-15T05:21:30;1.95;;;1.15;;
43700;SDS011;58809;47.984;7.964;2022-10-15T05:24:35;1.30;;;1.17;;
43700;SDS011;58809;47.984;7.964;2022-10-15T05:27:44;2.38;;;1.10;;
43700;SDS011;58809;47.984;7.964;2022-10-15T05:30:46;1.23;;;0.98;;
43700;SDS011;58809;47.984;7.964;2022-10-15T05:33:48;0.85;;;0.85;;
43700;SDS011;58809;47.984;7.964;2022-10-15T05:36:51;1.98;;;1.33;;
43700;SDS011;58809;47.984;7.964;2022-10-15T05:39:53;2.28;;;0.93;;
43700;SDS011;58809;47.984;7.964;2022-10-15T05:42:54;2.35;;;1.40;;
43700;SDS011;58809;47.984;7.964;2022-10-15T05:45:56;1.45;;;1.35;;
43700;SDS011;58809;47.984;7.964;2022-10-15T05:48:58;2.95;;;1.55;;
43700;SDS011;58809;47.984;7.964;2022-10-15T05:52:01;2.38;;;1.60;;
43700;SDS011;58809;47.984;7.964;2022-10-15T05:55:21;2.10;;;1.55;;
43700;SDS011;58809;47.984;7.964;2022-10-15T05:58:23;2.10;;;1.27;;
43700;SDS011;58809;47.984;7.964;2022-10-15T06:01:35;1.40;;;1.30;;
43700;SDS011;58809;47.984;7.964;2022-10-15T06:04:38;1.92;;;1.27;;
43700;SDS011;58809;47.984;7.964;2022-10-15T06:07:39;1.55;;;1.45;;
43700;SDS011;58809;47.984;7.964;2022-10-15T06:10:41;2.63;;;1.77;;
43700;SDS011;58809;47.984;7.964;2022-10-15T06:13:43;2.03;;;1.63;;
43700;SDS011;58809;47.984;7.964;2022-10-15T06:16:45;3.97;;;2.00;;
43700;SDS011;58809;47.984;7.964;2022-10-15T06:19:50;1.40;;;1.30;;
43700;SDS011;58809;47.984;7.964;2022-10-15T06:22:58;2.55;;;1.60;;
43700;SDS011;58809;47.984;7.964;2022-10-15T06:26:04;3.25;;;1.70;;
43700;SDS011;58809;47.984;7.964;2022-10-15T06:29:09;2.33;;;1.50;;
43700;SDS011;58809;47.984;7.964;2022-10-15T06:32:11;2.63;;;1.48;;
43700;SDS011;58809;47.984;7.964;2022-10-15T06:35:16;4.38;;;2.28;;
43700;SDS011;58809;47.984;7.964;2022-10-15T06:38:19;7.55;;;2.10;;
43700;SDS011;58809;47.984;7.964;2022-10-15T06:41:20;3.92;;;2.25;;
43700;SDS011;58809;47.984;7.964;2022-10-15T06:44:22;3.28;;;2.20;;
43700;SDS011;58809;47.984;7.964;2022-10-15T06:47:23;2.58;;;1.73;;
43700;SDS011;58809;47.984;7.964;2022-10-15T06:50:26;3.10;;;2.00;;
43700;SDS011;58809;47.984;7.964;2022-10-15T06:53:27;2.92;;;2.20;;
43700;SDS011;58809;47.984;7.964;2022-10-15T06:56:30;3.57;;;2.17;;
43700;SDS011;58809;47.984;7.964;2022-10-15T06:59:32;4.57;;;2.70;;
43700;SDS011;58809;47.984;7.964;2022-10-15T07:02:37;7.03;;;2.00;;
43700;SDS011;58809;47.984;7.964;2022-10-15T07:05:38;2.88;;;2.03;;
43700;SDS011;58809;47.984;7.964;2022-10-15T07:08:40;2.53;;;1.95;;
43700;SDS011;58809;47.984;7.964;2022-10-15T07:11:41;3.35;;;2.08;;
43700;SDS011;58809;47.984;7.964;2022-10-15T07:14:43;4.10;;;2.30;;
43700;SDS011;58809;47.984;7.964;2022-10-15T07:17:45;5.50;;;2.15;;
43700;SDS011;58809;47.984;7.964;2022-10-15T07:20:48;5.13;;;2.65;;
43700;SDS011;58809;47.984;7.964;2022-10-15T07:23:49;6.20;;;2.35;;
43700;SDS011;58809;47.984;7.964;2022-10-15T07:26:51;4.88;;;2.00;;
43700;SDS011;58809;47.984;7.964;2022-10-15T07:29:52;3.83;;;1.80;;
43700;SDS011;58809;47.984;7.964;2022-10-15T07:32:55;4.82;;;2.40;;
43700;SDS011;58809;47.984;7.964;2022-10-15T07:35:57;2.88;;;1.98;;
43700;SDS011;58809;47.984;7.964;2022-10-15T07:38:59;5.20;;;2.30;;
43700;SDS011;58809;47.984;7.964;2022-10-15T07:42:00;4.80;;;2.10;;
43700;SDS011;58809;47.984;7.964;2022-10-15T07:45:02;4.72;;;1.83;;
43700;SDS011;58809;47.984;7.964;2022-10-15T07:48:04;3.75;;;1.85;;
43700;SDS011;58809;47.984;7.964;2022-10-15T07:51:06;6.97;;;2.00;;
43700;SDS011;58809;47.984;7.964;2022-10-15T07:54:08;2.72;;;1.98;;
43700;SDS011;58809;47.984;7.964;2022-10-15T07:57:09;5.40;;;1.65;;
43700;SDS011;58809;47.984;7.964;2022-10-15T08:00:11;5.18;;;1.80;;
43700;SDS011;58809;47.984;7.964;2022-10-15T08:03:13;3.85;;;1.83;;
43700;SDS011;58809;47.984;7.964;2022-10-15T08:06:14;4.20;;;2.05;;
43700;SDS011;58809;47.984;7.964;2022-10-15T08:09:17;3.53;;;1.58;;
43700;SDS011;58809;47.984;7.964;2022-10-15T08:12:19;5.93;;;1.73;;
43700;SDS011;58809;47.984;7.964;2022-10-15T08:15:20;4.40;;;2.00;;
43700;SDS011;58809;47.984;7.964;2022-10-15T08:18:22;3.80;;;2.00;;
43700;SDS011;58809;47.984;7.964;2022-10-15T08:21:23;3.97;;;1.70;;
43700;SDS011;58809;47.984;7.964;2022-10-15T08:24:25;3.50;;;1.58;;
43700;SDS011;58809;47.984;7.964;2022-10-15T08:27:27;3.80;;;1.75;;
43700;SDS011;58809;47.984;7.964;2022-10-15T08:30:30;2.22;;;1.70;;
43700;SDS011;58809;47.984;7.964;2022-10-15T08:33:35;2.15;;;1.60;;
43700;SDS011;58809;47.984;7.964;2022-10-15T08:36:37;3.58;;;1.80;;
43700;SDS011;58809;47.984;7.964;2022-10-15T08:39:39;3.63;;;1.70;;
43700;SDS011;58809;47.984;7.964;2022-10-15T08:42:41;5.35;;;2.03;;
43700;SDS011;58809;47.984;7.964;2022-10-15T08:45:46;4.93;;;1.75;;
43700;SDS011;58809;47.984;7.964;2022-10-15T08:48:52;3.97;;;1.70;;
43700;SDS011;58809;47.984;7.964;2022-10-15T08:51:57;2.92;;;1.58;;
43700;SDS011;58809;47.984;7.964;2022-10-15T08:55:03;2.40;;;1.38;;
43700;SDS011;58809;47.984;7.964;2022-10-15T08:58:09;3.30;;;1.73;;
43700;SDS011;58809;47.984;7.964;2022-10-15T09:01:20;3.28;;;1.90;;
43700;SDS011;58809;47.984;7.964;2022-10-15T09:14:41;6.45;;;2.25;;
43700;SDS011;58809;47.984;7.964;2022-10-15T09:17:47;3.42;;;1.63;;
43700;SDS011;58809;47.984;7.964;2022-10-15T09:20:53;3.15;;;1.67;;
43700;SDS011;58809;47.984;7.964;2022-10-15T09:24:02;4.33;;;2.13;;
43700;SDS011;58809;47.984;7.964;2022-10-15T09:27:08;3.13;;;1.75;;
43700;SDS011;58809;47.984;7.964;2022-10-15T09:30:23;3.15;;;1.67;;
43700;SDS011;58809;47.984;7.964;2022-10-15T09:36:55;2.88;;;1.40;;
43700;SDS011;58809;47.984;7.964;2022-10-15T09:40:23;4.10;;;1.50;;
43700;SDS011;58809;47.984;7.964;2022-10-15T09:43:32;2.00;;;1.45;;
43700;SDS011;58809;47.984;7.964;2022-10-15T09:46:44;2.95;;;1.70;;
43700;SDS011;58809;47.984;7.964;2022-10-15T09:49:46;4.38;;;2.55;;
43700;SDS011;58809;47.984;7.964;2022-10-15T09:56:31;2.38;;;1.50;;
43700;SDS011;58809;47.984;7.964;2022-10-15T09:59:37;4.70;;;1.80;;
43700;SDS011;58809;47.984;7.964;2022-10-15T10:02:39;5.28;;;2.05;;
43700;SDS011;58809;47.984;7.964;2022-10-15T10:05:44;4.22;;;2.20;;
43700;SDS011;58809;47.984;7.964;2022-10-15T10:08:48;1.58;;;1.48;;
43700;SDS011;58809;47.984;7.964;2022-10-15T10:11:53;1.58;;;1.45;;
43700;SDS011;58809;47.984;7.964;2022-10-15T10:15:09;4.30;;;1.83;;
43700;SDS011;58809;47.984;7.964;2022-10-15T10:18:23;2.15;;;1.95;;
43700;SDS011;58809;47.984;7.964;2022-10-15T10:21:32;2.55;;;1.85;;
43700;SDS011;58809;47.984;7.964;2022-10-15T10:24:35;5.03;;;1.92;;
43700;SDS011;58809;47.984;7.964;2022-10-15T10:27:43;4.53;;;2.05;;
43700;SDS011;58809;47.984;7.964;2022-10-15T10:34:00;2.42;;;1.92;;
43700;SDS011;58809;47.984;7.964;2022-10-15T10:37:03;3.20;;;1.77;;
43700;SDS011;58809;47.984;7.964;2022-10-15T10:40:29;5.18;;;1.27;;
43700;SDS011;58809;47.984;7.964;2022-10-15T10:43:34;2.00;;;1.55;;
43700;SDS011;58809;47.984;7.964;2022-10-15T10:46:40;2.05;;;1.60;;
43700;SDS011;58809;47.984;7.964;2022-10-15T10:49:45;3.65;;;1.60;;
43700;SDS011;58809;47.984;7.964;2022-10-15T10:52:51;2.63;;;1.50;;
43700;SDS011;58809;47.984;7.964;2022-10-15T10:55:53;1.63;;;1.45;;
43700;SDS011;58809;47.984;7.964;2022-10-15T10:58:59;3.35;;;1.75;;
43700;SDS011;58809;47.984;7.964;2022-10-15T11:02:10;3.35;;;1.55;;
43700;SDS011;58809;47.984;7.964;2022-10-15T11:05:13;3.58;;;1.67;;
43700;SDS011;58809;47.984;7.964;2022-10-15T11:08:20;3.00;;;1.55;;
43700;SDS011;58809;47.984;7.964;2022-10-15T11:11:50;3.55;;;1.73;;
43700;SDS011;58809;47.984;7.964;2022-10-15T11:28:50;5.32;;;2.38;;
43700;SDS011;58809;47.984;7.964;2022-10-15T11:32:16;3.40;;;1.88;;
43700;SDS011;58809;47.984;7.964;2022-10-15T11:39:15;3.53;;;1.98;;
43700;SDS011;58809;47.984;7.964;2022-10-15T11:42:32;2.47;;;1.70;;
43700;SDS011;58809;47.984;7.964;2022-10-15T11:46:02;1.60;;;1.25;;
43700;SDS011;58809;47.984;7.964;2022-10-15T11:53:00;2.63;;;1.45;;
43700;SDS011;58809;47.984;7.964;2022-10-15T11:56:17;2.53;;;1.58;;
43700;SDS011;58809;47.984;7.964;2022-10-15T12:02:49;2.47;;;1.38;;
43700;SDS011;58809;47.984;7.964;2022-10-15T12:05:54;2.80;;;1.27;;
43700;SDS011;58809;47.984;7.964;2022-10-15T12:09:02;1.48;;;1.25;;
43700;SDS011;58809;47.984;7.964;2022-10-15T12:12:11;1.90;;;1.27;;
43700;SDS011;58809;47.984;7.964;2022-10-15T12:19:06;3.33;;;1.85;;
43700;SDS011;58809;47.984;7.964;2022-10-15T12:22:11;2.35;;;1.63;;
43700;SDS011;58809;47.984;7.964;2022-10-15T12:28:35;3.67;;;1.67;;
43700;SDS011;58809;47.984;7.964;2022-10-15T12:34:56;5.88;;;1.80;;
43700;SDS011;58809;47.984;7.964;2022-10-15T12:41:40;3.35;;;1.70;;
43700;SDS011;58809;47.984;7.964;2022-10-15T12:44:46;1.70;;;1.60;;
43700;SDS011;58809;47.984;7.964;2022-10-15T12:47:53;2.95;;;1.80;;
43700;SDS011;58809;47.984;7.964;2022-10-15T12:54:32;3.75;;;1.80;;
43700;SDS011;58809;47.984;7.964;2022-10-15T12:58:30;2.67;;;1.80;;
43700;SDS011;58809;47.984;7.964;2022-10-15T13:04:43;3.85;;;1.95;;
43700;SDS011;58809;47.984;7.964;2022-10-15T13:07:45;2.50;;;2.05;;
43700;SDS011;58809;47.984;7.964;2022-10-15T13:10:49;1.92;;;1.38;;
43700;SDS011;58809;47.984;7.964;2022-10-15T13:13:56;3.53;;;1.80;;
43700;SDS011;58809;47.984;7.964;2022-10-15T13:17:02;2.45;;;1.95;;
43700;SDS011;58809;47.984;7.964;2022-10-15T13:20:24;3.28;;;2.22;;
43700;SDS011;58809;47.984;7.964;2022-10-15T13:23:35;2.83;;;2.08;;
43700;SDS011;58809;47.984;7.964;2022-10-15T13:26:36;4.28;;;2.13;;
43700;SDS011;58809;47.984;7.964;2022-10-15T13:29:38;6.40;;;1.77;;
43700;SDS011;58809;47.984;7.964;2022-10-15T13:32:49;3.47;;;1.75;;
43700;SDS011;58809;47.984;7.964;2022-10-15T13:35:55;2.92;;;1.58;;
43700;SDS011;58809;47.984;7.964;2022-10-15T13:39:05;2.97;;;1.70;;
43700;SDS011;58809;47.984;7.964;2022-10-15T13:42:23;1.88;;;1.63;;
43700;SDS011;58809;47.984;7.964;2022-10-15T13:45:26;2.78;;;1.50;;
43700;SDS011;58809;47.984;7.964;2022-10-15T13:48:30;2.13;;;1.63;;
43700;SDS011;58809;47.984;7.964;2022-10-15T13:51:34;1.38;;;1.27;;
43700;SDS011;58809;47.984;7.964;2022-10-15T13:54:43;4.65;;;1.60;;
43700;SDS011;58809;47.984;7.964;2022-10-15T13:57:46;2.95;;;1.25;;
43700;SDS011;58809;47.984;7.964;2022-10-15T14:00:54;1.75;;;1.60;;
43700;SDS011;58809;47.984;7.964;2022-10-15T14:04:24;2.88;;;1.52;;
43700;SDS011;58809;47.984;7.964;2022-10-15T14:07:27;2.85;;;2.13;;
43700;SDS011;58809;47.984;7.964;2022-10-15T14:10:29;3.67;;;1.73;;
43700;SDS011;58809;47.984;7.964;2022-10-15T14:13:31;3.97;;;1.70;;
43700;SDS011;58809;47.984;7.964;2022-10-15T14:16:43;4.28;;;1.83;;
43700;SDS011;58809;47.984;7.964;2022-10-15T14:19:49;3.17;;;1.60;;
43700;SDS011;58809;47.984;7.964;2022-10-15T14:23:24;1.90;;;1.42;;
43700;SDS011;58809;47.984;7.964;2022-10-15T14:26:30;2.95;;;1.30;;
43700;SDS011;58809;47.984;7.964;2022-10-15T14:32:58;2.75;;;1.38;;
43700;SDS011;58809;47.984;7.964;2022-10-15T14:36:15;1.73;;;1.60;;
43700;SDS011;58809;47.984;7.964;2022-10-15T14:39:27;5.47;;;1.83;;
43700;SDS011;58809;47.984;7.964;2022-10-15T14:43:00;2.55;;;1.77;;
43700;SDS011;58809;47.984;7.964;2022-10-15T14:46:20;5.00;;;1.77;;
43700;SDS011;58809;47.984;7.964;2022-10-15T14:49:32;1.63;;;1.10;;
43700;SDS011;58809;47.984;7.964;2022-10-15T14:52:34;2.15;;;1.20;;
43700;SDS011;58809;47.984;7.964;2022-10-15T14:55:38;3.75;;;1.65;;
43700;SDS011;58809;47.984;7.964;2022-10-15T14:58:46;1.98;;;1.55;;
43700;SDS011;58809;47.984;7.964;2022-10-15T15:01:56;1.38;;;1.25;;
43700;SDS011;58809;47.984;7.964;2022-10-15T15:05:13;1.77;;;1.52;;
43700;SDS011;58809;47.984;7.964;2022-10-15T15:08:22;2.78;;;1.38;;
43700;SDS011;58809;47.984;7.964;2022-10-15T15:11:25;4.22;;;1.75;;
43700;SDS011;58809;47.984;7.964;2022-10-15T15:14:27;3.38;;;1.52;;
43700;SDS011;58809;47.984;7.964;2022-10-15T15:17:29;6.38;;;1.77;;
43700;SDS011;58809;47.984;7.964;2022-10-15T15:20:31;8.18;;;1.88;;
43700;SDS011;58809;47.984;7.964;2022-10-15T15:23:32;5.50;;;2.40;;
43700;SDS011;58809;47.984;7.964;2022-10-15T15:26:35;3.67;;;2.30;;
43700;SDS011;58809;47.984;7.964;2022-10-15T15:29:36;4.95;;;1.88;;
43700;SDS011;58809;47.984;7.964;2022-10-15T15:32:38;3.50;;;1.70;;
43700;SDS011;58809;47.984;7.964;2022-10-15T15:35:41;4.82;;;2.25;;
43700;SDS011;58809;47.984;7.964;2022-10-15T15:38:45;3.15;;;1.80;;
43700;SDS011;58809;47.984;7.964;2022-10-15T15:41:46;2.63;;;1.50;;
43700;SDS011;58809;47.984;7.964;2022-10-15T15:44:49;4.25;;;2.10;;
43700;SDS011;58809;47.984;7.964;2022-10-15T15:47:51;4.85;;;1.92;;
43700;SDS011;58809;47.984;7.964;2022-10-15T15:50:53;5.35;;;1.98;;
43700;SDS011;58809;47.984;7.964;2022-10-15T15:54:00;2.38;;;1.77;;
43700;SDS011;58809;47.984;7.964;2022-10-15T15:57:04;2.83;;;1.98;;
43700;SDS011;58809;47.984;7.964;2022-10-15T16:00:07;2.17;;;1.98;;
43700;SDS011;58809;47.984;7.964;2022-10-15T16:03:13;1.75;;;1.45;;
43700;SDS011;58809;47.984;7.964;2022-10-15T16:06:15;4.05;;;2.78;;
43700;SDS011;58809;47.984;7.964;2022-10-15T16:09:17;2.58;;;1.85;;
43700;SDS011;58809;47.984;7.964;2022-10-15T16:12:20;2.38;;;1.67;;
43700;SDS011;58809;47.984;7.964;2022-10-15T16:15:21;4.80;;;2.05;;
43700;SDS011;58809;47.984;7.964;2022-10-15T16:18:23;4.75;;;1.92;;
43700;SDS011;58809;47.984;7.964;2022-10-15T16:21:25;7.38;;;2.25;;
43700;SDS011;58809;47.984;7.964;2022-10-15T16:24:27;3.47;;;2.03;;
43700;SDS011;58809;47.984;7.964;2022-10-15T16:27:29;3.70;;;2.30;;
43700;SDS011;58809;47.984;7.964;2022-10-15T16:30:30;6.68;;;2.97;;
43700;SDS011;58809;47.984;7.964;2022-10-15T16:33:32;7.35;;;3.83;;
43700;SDS011;58809;47.984;7.964;2022-10-15T16:36:33;6.13;;;3.42;;
43700;SDS011;58809;47.984;7.964;2022-10-15T16:39:36;10.35;;;5.22;;
43700;SDS011;58809;47.984;7.964;2022-10-15T16:42:37;8.38;;;5.93;;
43700;SDS011;58809;47.984;7.964;2022-10-15T16:45:39;4.78;;;3.00;;
43700;SDS011;58809;47.984;7.964;2022-10-15T16:48:40;5.45;;;3.40;;
43700;SDS011;58809;47.984;7.964;2022-10-15T16:51:42;5.75;;;3.15;;
43700;SDS011;58809;47.984;7.964;2022-10-15T16:54:44;6.47;;;2.90;;
43700;SDS011;58809;47.984;7.964;2022-10-15T16:57:45;3.25;;;2.55;;
43700;SDS011;58809;47.984;7.964;2022-10-15T17:00:47;6.22;;;3.13;;
43700;SDS011;58809;47.984;7.964;2022-10-15T17:03:50;5.60;;;3.28;;
43700;SDS011;58809;47.984;7.964;2022-10-15T17:06:51;4.80;;;3.60;;
43700;SDS011;58809;47.984;7.964;2022-10-15T17:09:53;7.25;;;3.90;;
43700;SDS011;58809;47.984;7.964;2022-10-15T17:12:54;3.88;;;2.70;;
43700;SDS011;58809;47.984;7.964;2022-10-15T17:16:05;8.60;;;4.80;;
43700;SDS011;58809;47.984;7.964;2022-10-15T17:19:08;8.57;;;5.20;;
43700;SDS011;58809;47.984;7.964;2022-10-15T17:22:10;6.63;;;4.88;;
43700;SDS011;58809;47.984;7.964;2022-10-15T17:25:12;5.97;;;4.10;;
43700;SDS011;58809;47.984;7.964;2022-10-15T17:28:14;5.35;;;3.55;;
43700;SDS011;58809;47.984;7.964;2022-10-15T17:31:20;5.40;;;3.53;;
43700;SDS011;58809;47.984;7.964;2022-10-15T17:34:23;8.35;;;3.70;;
43700;SDS011;58809;47.984;7.964;2022-10-15T17:37:26;4.63;;;3.97;;
43700;SDS011;58809;47.984;7.964;2022-10-15T17:40:28;7.05;;;3.90;;
43700;SDS011;58809;47.984;7.964;2022-10-15T17:43:29;5.25;;;3.35;;
43700;SDS011;58809;47.984;7.964;2022-10-15T17:46:36;10.63;;;3.90;;
43700;SDS011;58809;47.984;7.964;2022-10-15T17:49:38;6.18;;;3.17;;
43700;SDS011;58809;47.984;7.964;2022-10-15T17:52:44;6.15;;;3.00;;
43700;SDS011;58809;47.984;7.964;2022-10-15T17:55:45;6.18;;;3.35;;
43700;SDS011;58809;47.984;7.964;2022-10-15T17:58:47;4.35;;;3.20;;
43700;SDS011;58809;47.984;7.964;2022-10-15T18:01:51;5.85;;;3.30;;
43700;SDS011;58809;47.984;7.964;2022-10-15T18:05:00;9.10;;;4.07;;
43700;SDS011;58809;47.984;7.964;2022-10-15T18:08:02;5.60;;;3.65;;
43700;SDS011;58809;47.984;7.964;2022-10-15T18:11:04;7.93;;;4.18;;
43700;SDS011;58809;47.984;7.964;2022-10-15T18:14:06;5.88;;;4.20;;
43700;SDS011;58809;47.984;7.964;2022-10-15T18:17:08;7.97;;;4.60;;
43700;SDS011;58809;47.984;7.964;2022-10-15T18:20:11;6.93;;;3.73;;
43700;SDS011;58809;47.984;7.964;2022-10-15T18:23:14;7.68;;;4.50;;
43700;SDS011;58809;47.984;7.964;2022-10-15T18:26:17;11.05;;;4.60;;
43700;SDS011;58809;47.984;7.964;2022-10-15T18:29:21;7.78;;;3.85;;
43700;SDS011;58809;47.984;7.964;2022-10-15T18:32:25;7.15;;;4.15;;
43700;SDS011;58809;47.984;7.964;2022-10-15T18:35:35;7.82;;;3.95;;
43700;SDS011;58809;47.984;7.964;2022-10-15T18:38:39;5.47;;;3.30;;
43700;SDS011;58809;47.984;7.964;2022-10-15T18:41:43;6.38;;;3.35;;
43700;SDS011;58809;47.984;7.964;2022-10-15T18:44:45;6.25;;;3.05;;
43700;SDS011;58809;47.984;7.964;2022-10-15T18:47:47;5.22;;;2.85;;
43700;SDS011;58809;47.984;7.964;2022-10-15T18:50:48;7.40;;;3.33;;
43700;SDS011;58809;47.984;7.964;2022-10-15T18:56:54;5.90;;;3.08;;
43700;SDS011;58809;47.984;7.964;2022-10-15T18:59:56;4.35;;;3.13;;
43700;SDS011;58809;47.984;7.964;2022-10-15T19:02:58;5.35;;;2.72;;
43700;SDS011;58809;47.984;7.964;2022-10-15T19:06:00;5.15;;;2.72;;
43700;SDS011;58809;47.984;7.964;2022-10-15T19:09:02;3.65;;;2.92;;
43700;SDS011;58809;47.984;7.964;2022-10-15T19:12:09;5.28;;;3.08;;
43700;SDS011;58809;47.984;7.964;2022-10-15T19:15:11;2.83;;;2.53;;
43700;SDS011;58809;47.984;7.964;2022-10-15T19:18:12;3.65;;;2.92;;
43700;SDS011;58809;47.984;7.964;2022-10-15T19:21:16;4.43;;;2.60;;
43700;SDS011;58809;47.984;7.964;2022-10-15T19:24:18;8.60;;;3.00;;
43700;SDS011;58809;47.984;7.964;2022-10-15T19:27:21;3.47;;;2.33;;
43700;SDS011;58809;47.984;7.964;2022-10-15T19:30:23;6.05;;;2.70;;
43700;SDS011;58809;47.984;7.964;2022-10-15T19:33:25;5.47;;;2.67;;
43700;SDS011;58809;47.984;7.964;2022-10-15T19:36:29;6.00;;;3.97;;
43700;SDS011;58809;47.984;7.964;2022-10-15T19:39:35;5.13;;;3.03;;
43700;SDS011;58809;47.984;7.964;2022-10-15T19:42:37;7.00;;;4.40;;
43700;SDS011;58809;47.984;7.964;2022-10-15T19:45:39;10.95;;;6.22;;
43700;SDS011;58809;47.984;7.964;2022-10-15T19:48:45;6.38;;;3.10;;
43700;SDS011;58809;47.984;7.964;2022-10-15T19:51:47;6.07;;;2.70;;
43700;SDS011;58809;47.984;7.964;2022-10-15T19:54:49;5.45;;;2.85;;
43700;SDS011;58809;47.984;7.964;2022-10-15T19:57:51;5.80;;;2.80;;
43700;SDS011;58809;47.984;7.964;2022-10-15T20:00:53;5.95;;;3.08;;
43700;SDS011;58809;47.984;7.964;2022-10-15T20:03:58;5.05;;;3.28;;
43700;SDS011;58809;47.984;7.964;2022-10-15T20:07:06;4.93;;;3.17;;
43700;SDS011;58809;47.984;7.964;2022-10-15T20:10:08;6.30;;;3.35;;
43700;SDS011;58809;47.984;7.964;2022-10-15T20:13:10;6.47;;;3.80;;